CheckWX is a tool to help pilots better visualize weather data.  It is not intended as a substitute for an official pre-flight weather briefing.

15:05:55 UTC

EGJB TAF
Guernsey Airport
Saint Peter Port, Guernsey
TAF EGJB 291356Z 2915/3000 23011KT 9999 FEW016 BECMG 2921/2923 17010KT

Jan-29@
15:00 UTC

Jan-29 @ 15:00 UTC

Jan-29@
21:00 UTC

Jan-29 @ 21:00 UTC

TAF EGJB 291356Z 2915/3000 23011KT 9999 FEW016
Wind
  • 230° at 11 KTS
Cloud Levels
  • Few at 1,600' AGL

Jan-29@
21:00 UTC

Jan-29 @ 21:00 UTC

Jan-30@
00:00 UTC

Jan-30 @ 00:00 UTC

BECMG 2921/2923 17010KT

Becoming

Becoming Conditions expected by Wed, Jan 29, 2020 @ 23:00 UTC

Wind
  • 170° at 10 KTS
Cloud Levels
  • Few at 1,600' AGL